Weather at Hamad International Airport

Public forecast

Using degrees Celsius for public forecast. Weather courtesy of forecast.io.

Current aviation weather report (METAR) for Hamad International Airport

Report is more than 6 hours old.

2022/11/14 15:00 (retrieved 2 years ago)

OTHH 141500Z 36014KT CAVOK 28/19 Q1015 NOSIG

Aviation forecast (TAF) for Hamad International Airport

Forecast is more than 12 hours old.

2023/02/22 18:00 (retrieved 1 year ago)

TAF OTHH 221813Z 2218/2324 16006KT CAVOK TEMPO 2218/2306 VRB02KT PROB30 TEMPO 2301/2304 6000 NSC BECMG 2310/2312 11010KT